KDOV/DOV METAR and TAF weather

Enter ICAO airport designator
Station Type Date Time Source
KDOV METAR 2020/03/31 22:46 UTC NOAA

KDOV 312246Z AUTO 07014KT 10SM OVC022 07/03 A2991 RMK AO2 CIG 018 RWY19 SLP132 $


Station Type Date Time Source
KDOV Decoded METAR 2020/03/31 22:46 UTC NOAA

Dover Air Force Base, DE, United States (KDOV) 39-08N 075-28W
Mar 31, 2020 - 06:46 PM EDT / 2020.03.31 2246 UTC
Wind: from the ENE (070 degrees) at 16 MPH (14 KT):0
Visibility: 10 mile(s):0
Sky conditions: overcast
Temperature: 44 F (7 C)
Dew Point: 37 F (3 C)
Relative Humidity: 75%
Pressure (altimeter): 29.91 in. Hg (1012 hPa)
ob: KDOV 312246Z AUTO 07014KT 10SM OVC022 07/03 A2991 RMK AO2 CIG 018 RWY19 SLP132
cycle: 23

Station Type Date Time Source
KDOV TAF 2020/03/31 21:28 UTC NOAA

TAF
AMD KDOV 312119Z 3121/0122 08015G20KT 9999 BKN020 QNH2976INS
BECMG 0108/0109 04015KT 9999 FEW022 510013 QNH2973INS
BECMG 0111/0112 03020G25KT 9999 BKN022 510023 QNH2974INS
BECMG 0117/0118 36015G20KT 9999 BKN035 510023 QNH2976INS
BECMG 0120/0121 34015G20KT 9999 BKN035 510013 QNH2971INS TX08/0116Z TN03/0111Z

Example: see airport list